createdAt,value
2022-08-17T00:02:16.363Z,100407.53
2022-08-17T00:07:27.417Z,100408.66
2022-08-17T00:12:43.682Z,100408.00
2022-08-17T00:17:48.044Z,100413.44
2022-08-17T00:22:50.057Z,100410.19
2022-08-17T00:27:51.956Z,100412.13
2022-08-17T00:33:12.249Z,100411.34
2022-08-17T00:38:17.877Z,100415.91
2022-08-17T00:43:33.520Z,100410.06
2022-08-17T00:48:35.289Z,100415.25
2022-08-17T00:53:56.263Z,100415.91
2022-08-17T00:58:57.949Z,100410.88
2022-08-17T01:04:00.047Z,100411.97
2022-08-17T01:09:02.053Z,100411.66
2022-08-17T01:14:03.781Z,100416.19
2022-08-17T01:19:09.279Z,100420.19
2022-08-17T01:24:10.949Z,100416.31
2022-08-17T01:29:12.714Z,100410.25
2022-08-17T01:34:15.167Z,100414.38
2022-08-17T01:39:50.355Z,100411.63
2022-08-17T01:44:55.197Z,100426.06
2022-08-17T01:49:56.885Z,100422.47
2022-08-17T01:54:58.534Z,100424.34
2022-08-17T02:00:00.469Z,100420.97
2022-08-17T02:05:02.165Z,100422.97
2022-08-17T02:10:05.485Z,100421.81
2022-08-17T02:15:21.597Z,100423.84
2022-08-17T02:20:41.778Z,100424.16
2022-08-17T02:25:44.843Z,100419.03
2022-08-17T02:31:00.992Z,100421.00
2022-08-17T02:36:04.965Z,100414.91
2022-08-17T02:41:06.761Z,100416.84
2022-08-17T02:46:08.471Z,100424.78
2022-08-17T02:51:10.161Z,100418.56
2022-08-17T02:56:11.831Z,100408.84
2022-08-17T03:01:13.649Z,100404.41
2022-08-17T03:06:16.664Z,100404.50
2022-08-17T03:11:18.337Z,100411.53
2022-08-17T03:16:20.005Z,100408.84
2022-08-17T03:21:21.670Z,100406.31
2022-08-17T03:26:23.332Z,100410.22
2022-08-17T03:31:24.997Z,100411.16
2022-08-17T03:36:26.708Z,100418.31
2022-08-17T03:41:28.413Z,100417.66
2022-08-17T03:46:48.610Z,100412.84
2022-08-17T03:52:09.127Z,100422.72
2022-08-17T03:57:11.025Z,100416.56
2022-08-17T04:02:26.869Z,100415.13
2022-08-17T04:07:29.776Z,100422.31
2022-08-17T04:12:42.351Z,100427.31
2022-08-17T04:17:44.285Z,100424.66
2022-08-17T04:22:59.544Z,100420.16
2022-08-17T04:28:01.464Z,100429.50
2022-08-17T04:33:08.666Z,100435.16
2022-08-17T04:38:12.656Z,100444.91
2022-08-17T04:43:17.562Z,100445.81
2022-08-17T04:48:20.798Z,100443.75
2022-08-17T04:53:22.462Z,100435.28
2022-08-17T04:58:24.243Z,100445.94
2022-08-17T05:03:25.931Z,100456.16
2022-08-17T05:08:27.683Z,100461.91
2022-08-17T05:13:29.756Z,100456.00
2022-08-17T05:18:31.502Z,100468.50
2022-08-17T05:23:42.078Z,100472.59
2022-08-17T05:28:45.079Z,100466.53
2022-08-17T05:33:47.735Z,100468.63
2022-08-17T05:38:50.557Z,100469.06
2022-08-17T05:43:56.197Z,100471.47
2022-08-17T05:49:01.605Z,100467.41
2022-08-17T05:54:13.168Z,100474.19
2022-08-17T05:59:23.772Z,100473.09
2022-08-17T06:04:47.973Z,100478.09
2022-08-17T06:10:07.801Z,100479.63
2022-08-17T06:15:24.855Z,100477.25
2022-08-17T06:20:31.966Z,100480.13
2022-08-17T06:25:39.036Z,100474.09
2022-08-17T06:30:59.633Z,100477.88
2022-08-17T06:36:09.667Z,100479.97
2022-08-17T06:41:42.882Z,100473.94
2022-08-17T06:46:48.531Z,100471.41
2022-08-17T06:51:52.054Z,100474.88
2022-08-17T06:57:18.866Z,100475.88
2022-08-17T07:02:52.332Z,100483.91
2022-08-17T07:08:01.736Z,100477.22
2022-08-17T07:13:15.206Z,100481.09
2022-08-17T07:18:16.868Z,100470.63
2022-08-17T07:23:23.029Z,100477.28
2022-08-17T07:28:34.920Z,100468.41
2022-08-17T07:33:36.829Z,100476.53
2022-08-17T07:38:54.762Z,100475.59
2022-08-17T07:43:56.449Z,100480.81
2022-08-17T07:49:03.050Z,100481.69
2022-08-17T07:54:29.482Z,100485.25
2022-08-17T07:59:35.645Z,100471.47
2022-08-17T08:04:59.730Z,100475.56
2022-08-17T08:10:14.061Z,100482.34
2022-08-17T08:15:21.803Z,100482.16
2022-08-17T08:20:52.306Z,100485.09
2022-08-17T08:26:29.567Z,100480.84
2022-08-17T08:31:57.574Z,100494.75
2022-08-17T08:37:32.732Z,100500.47
2022-08-17T08:42:42.802Z,100498.13
2022-08-17T08:47:53.713Z,100500.13
2022-08-17T08:53:21.268Z,100505.03
2022-08-17T08:58:49.125Z,100498.34
2022-08-17T09:04:25.011Z,100499.59
2022-08-17T09:09:55.127Z,100501.75
2022-08-17T09:15:12.727Z,100508.31
2022-08-17T09:20:35.527Z,100495.19
2022-08-17T09:25:55.256Z,100497.03
2022-08-17T09:31:02.925Z,100503.19
2022-08-17T09:36:08.383Z,100504.19
2022-08-17T09:41:17.601Z,100492.50
2022-08-17T09:46:25.714Z,100496.09
2022-08-17T09:51:40.098Z,100487.56
2022-08-17T09:57:05.904Z,100495.69
2022-08-17T10:02:45.714Z,100490.31
2022-08-17T10:08:11.185Z,100483.75
2022-08-17T10:13:27.933Z,100481.16
2022-08-17T10:18:37.631Z,100473.06
2022-08-17T10:23:57.632Z,100472.66
2022-08-17T10:29:06.620Z,100472.75
2022-08-17T10:34:46.084Z,100465.81
2022-08-17T10:40:18.066Z,100466.00
2022-08-17T10:45:23.402Z,100457.97
2022-08-17T10:50:55.596Z,100454.69
2022-08-17T10:56:18.006Z,100455.25
2022-08-17T11:01:29.347Z,100451.34
2022-08-17T11:06:37.195Z,100452.09
2022-08-17T11:11:47.667Z,100444.19
2022-08-17T11:17:08.012Z,100445.28
2022-08-17T11:22:31.298Z,100437.97
2022-08-17T11:27:35.293Z,100437.31
2022-08-17T11:32:47.802Z,100434.25
2022-08-17T11:38:18.377Z,100434.66
2022-08-17T11:43:48.404Z,100428.78
2022-08-17T11:49:11.841Z,100433.41
2022-08-17T11:54:33.231Z,100434.59
2022-08-17T11:59:45.780Z,100418.00
2022-08-17T12:05:12.814Z,100416.56
2022-08-17T12:10:17.180Z,100405.25
2022-08-17T12:15:21.960Z,100413.97
2022-08-17T12:20:34.992Z,100406.53
2022-08-17T12:25:36.501Z,100399.25
2022-08-17T12:30:38.391Z,100401.09
2022-08-17T12:35:40.137Z,100388.88
2022-08-17T12:40:53.286Z,100385.13
2022-08-17T12:45:57.221Z,100387.31
2022-08-17T12:51:00.479Z,100378.44
2022-08-17T12:56:02.429Z,100376.81
2022-08-17T13:01:09.488Z,100375.72
2022-08-17T13:06:14.247Z,100375.09
2022-08-17T13:11:18.472Z,100357.41
2022-08-17T13:16:27.895Z,100357.72
2022-08-17T13:21:30.580Z,100348.13
2022-08-17T13:26:38.408Z,100343.94
2022-08-17T13:31:49.792Z,100343.44
2022-08-17T13:37:29.820Z,100347.28
2022-08-17T13:42:50.571Z,100348.00
2022-08-17T13:48:13.502Z,100335.41
2022-08-17T13:53:17.670Z,100345.66
2022-08-17T13:58:27.550Z,100350.34
2022-08-17T14:03:29.228Z,100341.06
2022-08-17T14:08:30.927Z,100339.66
2022-08-17T14:13:32.579Z,100333.13
2022-08-17T14:18:55.762Z,100325.25
2022-08-17T14:23:55.876Z,100333.28
2022-08-17T14:28:57.540Z,100335.16
2022-08-17T14:33:59.769Z,100329.31
2022-08-17T14:39:01.420Z,100327.16
2022-08-17T14:44:04.240Z,100323.47
2022-08-17T14:49:05.972Z,100320.72
2022-08-17T14:54:07.779Z,100322.63
2022-08-17T14:59:09.424Z,100319.47
2022-08-17T15:04:14.818Z,100321.78
2022-08-17T15:09:16.897Z,100322.53
2022-08-17T15:14:19.194Z,100310.78
2022-08-17T15:19:20.850Z,100304.00
2022-08-17T15:24:22.499Z,100304.34
2022-08-17T15:29:24.147Z,100304.22
2022-08-17T15:34:25.792Z,100305.03
2022-08-17T15:39:27.473Z,100302.84
2022-08-17T15:44:32.509Z,100299.44
2022-08-17T15:49:39.177Z,100288.78
2022-08-17T15:54:40.840Z,100287.06
2022-08-17T15:59:47.356Z,100295.91
2022-08-17T16:05:03.303Z,100321.00
2022-08-17T16:10:06.635Z,100326.97
2022-08-17T16:15:08.845Z,100340.41
2022-08-17T16:20:20.069Z,100340.53
2022-08-17T16:25:38.830Z,100338.00
2022-08-17T16:30:47.823Z,100364.22
2022-08-17T16:35:49.492Z,100361.00
2022-08-17T16:40:51.161Z,100349.00
2022-08-17T16:45:52.839Z,100315.63
2022-08-17T16:51:03.126Z,100315.19
2022-08-17T16:56:07.359Z,100312.31
2022-08-17T17:01:09.043Z,100304.41
2022-08-17T17:06:18.599Z,100309.03
2022-08-17T17:11:26.844Z,100302.66
2022-08-17T17:16:28.517Z,100303.88
2022-08-17T17:21:37.746Z,100303.31
2022-08-17T17:26:48.380Z,100300.47
2022-08-17T17:32:05.795Z,100289.19
2022-08-17T17:37:10.737Z,100296.56
2022-08-17T17:42:20.244Z,100288.84
2022-08-17T17:47:22.131Z,100297.88
2022-08-17T17:52:36.030Z,100304.03
2022-08-17T17:58:00.877Z,100313.50
2022-08-17T18:03:08.213Z,100327.78
2022-08-17T18:08:32.184Z,100330.75
2022-08-17T18:14:23.318Z,100347.88
2022-08-17T18:19:26.246Z,100359.06
2022-08-17T18:24:42.033Z,100354.56
2022-08-17T18:29:44.646Z,100350.94
2022-08-17T18:34:48.734Z,100358.28
2022-08-17T18:39:50.687Z,100358.94
2022-08-17T18:44:55.174Z,100370.47
2022-08-17T18:50:00.436Z,100374.84
2022-08-17T18:55:22.661Z,100381.34
2022-08-17T19:00:37.112Z,100375.25
2022-08-17T19:05:40.512Z,100373.88
2022-08-17T19:10:46.261Z,100385.22
2022-08-17T19:16:14.891Z,100396.69
2022-08-17T19:21:29.477Z,100401.78
2022-08-17T19:26:54.549Z,100397.22
2022-08-17T19:31:58.689Z,100390.19
2022-08-17T19:37:06.888Z,100382.81
2022-08-17T19:42:24.983Z,100381.09
2022-08-17T19:47:54.248Z,100383.13
2022-08-17T19:53:17.519Z,100373.75
2022-08-17T19:58:44.947Z,100372.03
2022-08-17T20:03:52.965Z,100367.97
2022-08-17T20:09:24.496Z,100375.22
2022-08-17T20:14:39.495Z,100377.25
2022-08-17T20:20:03.984Z,100368.44
2022-08-17T20:25:13.823Z,100380.13
2022-08-17T20:30:34.035Z,100380.91
2022-08-17T20:35:38.700Z,100384.47
2022-08-17T20:41:00.953Z,100386.31
2022-08-17T20:46:17.868Z,100388.63
2022-08-17T20:51:31.462Z,100378.38
2022-08-17T20:56:46.338Z,100387.47
2022-08-17T21:02:18.283Z,100385.03
2022-08-17T21:07:42.613Z,100386.25
2022-08-17T21:12:49.942Z,100381.13
2022-08-17T21:18:03.450Z,100383.19
2022-08-17T21:23:40.292Z,100379.97
2022-08-17T21:29:00.794Z,100377.72
2022-08-17T21:34:15.126Z,100377.72
2022-08-17T21:39:21.444Z,100382.44
2022-08-17T21:44:33.832Z,100385.34
2022-08-17T21:49:37.996Z,100395.38
2022-08-17T21:54:42.497Z,100385.44
2022-08-17T21:59:44.262Z,100388.31
2022-08-17T22:04:56.883Z,100384.34
2022-08-17T22:09:58.816Z,100393.53
2022-08-17T22:15:02.304Z,100389.63
2022-08-17T22:20:17.246Z,100380.91
2022-08-17T22:25:22.418Z,100384.28
2022-08-17T22:30:37.936Z,100396.78
2022-08-17T22:35:43.150Z,100392.50
2022-08-17T22:40:55.825Z,100405.63
2022-08-17T22:45:58.656Z,100403.44
2022-08-17T22:51:12.874Z,100407.47
2022-08-17T22:56:36.265Z,100410.53
2022-08-17T23:01:39.063Z,100426.63
2022-08-17T23:06:43.787Z,100427.53
2022-08-17T23:11:50.037Z,100423.22
2022-08-17T23:16:52.083Z,100419.78
2022-08-17T23:21:56.706Z,100429.69
2022-08-17T23:26:58.931Z,100438.91
2022-08-17T23:32:01.274Z,100436.50
2022-08-17T23:37:04.310Z,100428.16
2022-08-17T23:42:08.058Z,100418.50
2022-08-17T23:47:10.419Z,100413.78
2022-08-17T23:52:15.296Z,100408.47
2022-08-17T23:57:19.364Z,100406.66
